Time;durP1;ratioP1;P1;durP2;ratioP2;P2;SDS_P1;SDS_P2;PMS_P1;PMS_P2;Temp;Humidity;BMP_temperature;BMP_pressure;BME280_temperature;BME280_humidity;BME280_pressure;Samples;Min_cycle;Max_cycle;Signal;HPM_P1;HPM_P2
2020/12/26 00:02:12;;;;;;;3.90;3.33;;;;;;;1.69;86.18;99668.28;1771726;81;21505;-65
2020/12/26 00:04:40;;;;;;;4.60;3.50;;;;;;;1.68;86.32;99677.70;1771748;81;21487;-68
2020/12/26 00:07:09;;;;;;;3.65;3.22;;;;;;;1.69;86.31;99684.96;1771783;81;21570;-66
2020/12/26 00:09:39;;;;;;;3.22;2.92;;;;;;;1.68;86.37;99687.13;1771778;80;21362;-68
2020/12/26 00:12:08;;;;;;;3.37;3.08;;;;;;;1.70;86.38;99679.39;1771625;81;21398;-63
2020/12/26 00:14:36;;;;;;;4.08;3.15;;;;;;;1.70;86.47;99685.36;1771744;80;21581;-65
2020/12/26 00:17:05;;;;;;;3.37;3.17;;;;;;;1.72;86.48;99695.16;1771681;81;21580;-68
2020/12/26 00:19:35;;;;;;;3.40;3.10;;;;;;;1.73;86.45;99696.84;1771815;81;21473;-66
2020/12/26 00:22:03;;;;;;;3.40;3.10;;;;;;;1.75;86.44;99700.65;1771684;81;23520;-67
2020/12/26 00:24:32;;;;;;;4.65;3.45;;;;;;;1.76;86.38;99692.91;1776247;80;21065;-68
2020/12/26 00:27:00;;;;;;;4.58;3.90;;;;;;;1.76;86.36;99695.48;1785475;80;21520;-69
2020/12/26 00:29:28;;;;;;;3.85;3.50;;;;;;;1.76;86.32;99691.62;1785447;80;21587;-68
2020/12/26 00:31:57;;;;;;;3.45;3.17;;;;;;;1.74;86.37;99688.25;1785430;80;21496;-66
2020/12/26 00:34:25;;;;;;;3.47;3.17;;;;;;;1.73;86.36;99690.86;1785467;80;22173;-68
2020/12/26 00:36:53;;;;;;;3.35;3.12;;;;;;;1.72;86.40;99690.45;1785410;80;21560;-68
2020/12/26 00:39:22;;;;;;;3.20;3.00;;;;;;;1.71;86.46;99688.77;1785393;80;21604;-69
2020/12/26 00:41:50;;;;;;;3.17;2.87;;;;;;;1.71;86.56;99683.20;1785425;80;21512;-67
2020/12/26 00:44:19;;;;;;;3.85;3.42;;;;;;;1.74;86.53;99684.84;1785511;80;21611;-69
2020/12/26 00:46:47;;;;;;;3.98;3.60;;;;;;;1.73;86.46;99673.73;1785462;80;22339;-69
2020/12/26 00:49:16;;;;;;;3.25;3.05;;;;;;;1.74;86.44;99674.14;1785425;80;21477;-69
2020/12/26 00:51:48;;;;;;;3.80;3.37;;;;;;;1.75;86.43;99683.97;1785426;80;21564;-69
2020/12/26 00:54:17;;;;;;;3.67;3.40;;;;;;;1.74;86.42;99684.41;1785435;80;20943;-69
2020/12/26 00:56:45;;;;;;;3.60;3.30;;;;;;;1.76;86.43;99686.94;1785530;80;21610;-69
2020/12/26 00:59:14;;;;;;;3.70;3.40;;;;;;;1.75;86.43;99683.52;1785482;80;21456;-68
2020/12/26 01:01:42;;;;;;;3.50;3.20;;;;;;;1.76;86.41;99685.66;1785443;80;21599;-68
2020/12/26 01:04:12;;;;;;;3.30;3.10;;;;;;;1.75;86.40;99680.95;1785062;79;21603;-70
2020/12/26 01:06:41;;;;;;;3.65;3.35;;;;;;;1.76;86.35;99683.92;1785625;80;21374;-68
2020/12/26 01:09:09;;;;;;;3.95;3.45;;;;;;;1.75;86.33;99693.79;1785641;80;21464;-70
2020/12/26 01:11:42;;;;;;;4.03;3.65;;;;;;;1.74;86.29;99697.23;1785711;80;21382;-69
2020/12/26 01:14:10;;;;;;;3.58;3.27;;;;;;;1.73;86.35;99703.69;1785670;80;21580;-68
2020/12/26 01:16:38;;;;;;;3.60;3.35;;;;;;;1.70;86.41;99702.05;1785620;80;21488;-69
2020/12/26 01:19:07;;;;;;;3.40;3.10;;;;;;;1.70;86.45;99707.18;1785586;80;21007;-69
2020/12/26 01:21:35;;;;;;;5.45;3.30;;;;;;;1.70;86.43;99697.36;1785684;80;21579;-70
2020/12/26 01:24:03;;;;;;;4.72;3.70;;;;;;;1.71;86.44;99706.73;1785585;80;22218;-70
2020/12/26 01:26:32;;;;;;;3.50;3.20;;;;;;;1.71;86.41;99697.75;1785592;80;21634;-68
2020/12/26 01:29:00;;;;;;;3.55;3.25;;;;;;;1.68;86.41;99704.66;1785603;80;21477;-66
2020/12/26 01:31:29;;;;;;;3.50;3.20;;;;;;;1.69;86.43;99700.36;1785610;80;21603;-67
2020/12/26 01:33:57;;;;;;;3.70;3.30;;;;;;;1.70;86.43;99714.03;1785649;80;21481;-63
2020/12/26 01:36:25;;;;;;;3.17;2.87;;;;;;;1.70;86.45;99707.18;1785585;80;22210;-64
2020/12/26 01:38:55;;;;;;;3.05;2.83;;;;;;;1.71;86.36;99711.87;1785518;80;21623;-62
2020/12/26 01:41:23;;;;;;;2.90;2.70;;;;;;;1.71;86.29;99708.02;1785574;80;21410;-64
2020/12/26 01:43:56;;;;;;;3.12;2.83;;;;;;;1.70;86.28;99716.16;1785515;80;21631;-62
2020/12/26 01:46:30;;;;;;;2.87;2.67;;;;;;;1.68;86.33;99717.48;1785670;80;21015;-66
2020/12/26 01:48:59;;;;;;;2.92;2.62;;;;;;;1.67;86.39;99720.93;1785626;80;21127;-68
2020/12/26 01:51:31;;;;;;;2.80;2.60;;;;;;;1.67;86.32;99720.93;1785520;80;20927;-69
2020/12/26 01:54:00;;;;;;;3.33;2.52;;;;;;;1.67;86.36;99728.63;1785500;80;21523;-67
2020/12/26 01:56:29;;;;;;;3.10;2.85;;;;;;;1.67;86.37;99720.93;1785516;80;20943;-65
2020/12/26 01:58:57;;;;;;;2.87;2.67;;;;;;;1.68;86.34;99727.75;1785562;80;20951;-68
2020/12/26 02:01:39;;;;;;;3.42;2.67;;;;;;;1.70;86.34;99732.84;1785603;80;22243;-65
2020/12/26 02:04:09;;;;;;;3.20;2.60;;;;;;;1.69;86.27;99728.59;1785494;80;20963;-65
2020/12/26 02:06:50;;;;;;;2.90;2.70;;;;;;;1.68;86.21;99735.89;1785478;80;20947;-63
2020/12/26 02:09:19;;;;;;;2.62;2.42;;;;;;;1.66;86.28;99739.77;1785573;80;21517;-66
2020/12/26 02:11:49;;;;;;;2.80;2.60;;;;;;;1.67;86.21;99750.45;1785634;79;21350;-66
2020/12/26 02:14:17;;;;;;;4.05;2.77;;;;;;;1.67;86.18;99742.75;1785552;80;21965;-69
2020/12/26 02:16:50;;;;;;;5.30;2.60;;;;;;;1.68;86.15;99748.28;1785578;80;21572;-68
2020/12/26 02:19:23;;;;;;;2.55;2.37;;;;;;;1.67;86.13;99739.34;1785567;80;20950;-68
2020/12/26 02:21:51;;;;;;;3.08;2.60;;;;;;;1.67;86.05;99745.75;1785594;80;20931;-67
2020/12/26 02:24:19;;;;;;;2.60;2.40;;;;;;;1.65;86.12;99740.66;1785554;80;21512;-70
2020/12/26 02:26:48;;;;;;;3.22;2.92;;;;;;;1.66;86.09;99741.50;1771926;80;22035;-66
2020/12/26 02:29:16;;;;;;;2.50;2.33;;;;;;;1.65;86.03;99740.66;1771765;81;21452;-69
2020/12/26 02:31:45;;;;;;;2.80;2.65;;;;;;;1.63;86.02;99740.28;1771774;81;21608;-70
2020/12/26 02:34:13;;;;;;;2.80;2.60;;;;;;;1.61;85.97;99742.89;1771772;81;21576;-62
2020/12/26 02:36:42;;;;;;;2.47;2.37;;;;;;;1.59;86.05;99743.84;1771832;81;21607;-60
2020/12/26 02:39:10;;;;;;;3.00;2.75;;;;;;;1.59;86.10;99751.54;1771792;81;21516;-63
2020/12/26 02:41:39;;;;;;;2.80;2.52;;;;;;;1.57;86.15;99750.29;1771771;81;21498;-61
2020/12/26 02:44:08;;;;;;;2.65;2.50;;;;;;;1.58;86.11;99747.28;1771728;81;21486;-61
2020/12/26 02:46:36;;;;;;;3.00;2.67;;;;;;;1.56;86.08;99743.47;1771800;81;21561;-62
2020/12/26 02:49:04;;;;;;;3.02;2.83;;;;;;;1.56;86.05;99738.34;1771835;81;21560;-64
2020/12/26 02:51:36;;;;;;;2.60;2.50;;;;;;;1.56;86.04;99742.63;1771798;81;22285;-63
2020/12/26 02:54:04;;;;;;;2.83;2.62;;;;;;;1.55;86.07;99746.07;1771807;81;21592;-61
2020/12/26 02:56:33;;;;;;;3.33;2.83;;;;;;;1.55;86.03;99743.51;1771788;80;21540;-62
2020/12/26 02:59:01;;;;;;;2.90;2.70;;;;;;;1.54;85.95;99752.08;1771851;81;21587;-69
2020/12/26 03:01:29;;;;;;;3.00;2.77;;;;;;;1.52;86.02;99753.84;1771769;81;21520;-69
2020/12/26 03:03:58;;;;;;;2.83;2.62;;;;;;;1.51;86.01;99762.42;1771824;81;21480;-69
2020/12/26 03:06:26;;;;;;;3.77;2.35;;;;;;;1.51;86.00;99759.85;1771760;81;21514;-69
2020/12/26 03:08:54;;;;;;;2.77;2.58;;;;;;;1.51;85.93;99763.27;1771784;81;21402;-69
2020/12/26 03:11:23;;;;;;;2.70;2.50;;;;;;;1.51;85.91;99758.57;1771725;80;21576;-69
2020/12/26 03:13:51;;;;;;;2.83;2.62;;;;;;;1.50;85.83;99754.31;1771856;81;21474;-66
2020/12/26 03:16:20;;;;;;;2.65;2.47;;;;;;;1.51;85.72;99754.72;1771747;81;22116;-70
2020/12/26 03:18:49;;;;;;;6.72;2.77;;;;;;;1.50;85.63;99751.75;1771736;81;20944;-69
2020/12/26 03:21:17;;;;;;;2.80;2.60;;;;;;;1.48;85.55;99749.22;1771768;81;21489;-70
2020/12/26 03:23:46;;;;;;;3.35;2.72;;;;;;;1.48;85.52;99755.63;1771679;81;21552;-69
2020/12/26 03:26:15;;;;;;;2.85;2.65;;;;;;;1.46;85.42;99753.55;1780411;80;21548;-70
2020/12/26 03:28:43;;;;;;;2.87;2.60;;;;;;;1.44;85.35;99753.17;1785547;80;22168;-69
2020/12/26 03:31:12;;;;;;;3.67;3.15;;;;;;;1.43;85.35;99750.20;1785452;80;21639;-69
2020/12/26 03:33:40;;;;;;;8.35;2.98;;;;;;;1.44;85.24;99750.17;1785609;80;21489;-69
2020/12/26 03:36:09;;;;;;;4.37;3.25;;;;;;;1.43;85.17;99751.05;1785429;80;21496;-69
2020/12/26 03:38:37;;;;;;;3.50;3.20;;;;;;;1.44;85.06;99754.45;1785527;80;21504;-68
2020/12/26 03:41:06;;;;;;;2.85;2.58;;;;;;;1.44;85.00;99755.30;1785522;80;21564;-67
2020/12/26 03:43:34;;;;;;;2.75;2.55;;;;;;;1.46;84.95;99759.11;1785390;80;21604;-69
2020/12/26 03:46:03;;;;;;;2.72;2.52;;;;;;;1.46;84.76;99752.70;1785466;80;21563;-68
2020/12/26 03:48:31;;;;;;;4.95;2.50;;;;;;;1.46;84.51;99754.83;1785463;80;21070;-69
2020/12/26 03:50:59;;;;;;;2.80;2.58;;;;;;;1.47;84.36;99764.21;1785483;80;21493;-69
2020/12/26 03:53:28;;;;;;;3.27;2.50;;;;;;;1.46;84.00;99757.39;1785507;80;22159;-69
2020/12/26 03:55:57;;;;;;;4.15;2.77;;;;;;;1.46;83.59;99759.95;1785461;80;21494;-70
2020/12/26 03:58:25;;;;;;;3.55;2.70;;;;;;;1.45;83.21;99762.55;1785490;80;21548;-69
2020/12/26 04:00:53;;;;;;;3.08;2.83;;;;;;;1.45;83.06;99759.99;1785453;80;21588;-69
2020/12/26 04:03:23;;;;;;;4.03;2.42;;;;;;;1.45;82.94;99763.41;1785466;80;21624;-71
2020/12/26 04:05:51;;;;;;;3.80;2.83;;;;;;;1.44;82.90;99758.30;1785484;80;22174;-69
2020/12/26 04:08:19;;;;;;;3.35;2.60;;;;;;;1.45;82.90;99759.55;1785437;80;21488;-69
2020/12/26 04:10:48;;;;;;;3.87;2.50;;;;;;;1.46;82.87;99773.22;1785567;80;21508;-71
2020/12/26 04:13:16;;;;;;;3.10;2.87;;;;;;;1.46;82.90;99779.64;1785465;80;21564;-70
2020/12/26 04:15:46;;;;;;;2.67;2.27;;;;;;;1.45;82.94;99778.80;1785456;80;21014;-66
2020/12/26 04:18:14;;;;;;;2.72;2.42;;;;;;;1.45;83.02;99783.08;1785515;80;21524;-71
2020/12/26 04:20:43;;;;;;;2.60;2.40;;;;;;;1.44;83.19;99783.52;1785369;80;21564;-70
2020/12/26 04:23:11;;;;;;;2.75;2.50;;;;;;;1.43;83.34;99779.70;1785476;80;20940;-70
2020/12/26 04:25:39;;;;;;;2.67;2.27;;;;;;;1.43;83.43;99786.97;1785392;80;21485;-68
2020/12/26 04:28:08;;;;;;;2.80;2.60;;;;;;;1.44;83.48;99791.22;1785540;80;21576;-68
2020/12/26 04:30:36;;;;;;;2.67;2.30;;;;;;;1.43;83.53;99784.84;1785561;80;22237;-68
2020/12/26 04:33:04;;;;;;;3.02;2.77;;;;;;;1.43;83.66;99784.84;1785509;80;21568;-69
2020/12/26 04:35:33;;;;;;;3.00;2.70;;;;;;;1.43;83.65;99786.13;1785532;80;21591;-68
2020/12/26 04:38:01;;;;;;;5.10;2.80;;;;;;;1.40;83.78;99779.77;1785639;80;21509;-69
2020/12/26 04:40:30;;;;;;;3.58;2.60;;;;;;;1.39;83.92;99776.37;1785716;80;21535;-69
2020/12/26 04:42:58;;;;;;;4.03;2.60;;;;;;;1.40;83.94;99786.19;1785610;80;22329;-70
2020/12/26 04:45:27;;;;;;;4.72;2.95;;;;;;;1.39;84.01;99791.76;1785667;80;21556;-69
2020/12/26 04:47:58;;;;;;;5.80;3.00;;;;;;;1.39;84.08;99795.61;1785726;80;21548;-70
2020/12/26 04:50:28;;;;;;;3.60;2.98;;;;;;;1.39;84.14;99802.02;1785374;80;21038;-69
2020/12/26 04:52:59;;;;;;;4.70;2.60;;;;;;;1.40;84.69;99810.56;1785655;80;20947;-70
2020/12/26 04:55:33;;;;;;;6.92;2.87;;;;;;;1.42;85.25;99810.93;1785590;80;21254;-69
2020/12/26 04:58:08;;;;;;;3.72;2.60;;;;;;;1.47;85.33;99819.38;1785482;80;21647;-67
2020/12/26 05:00:37;;;;;;;2.80;2.60;;;;;;;1.52;85.39;99816.70;1785653;80;20967;-69
2020/12/26 05:03:12;;;;;;;4.45;2.67;;;;;;;1.57;85.19;99829.00;1785503;80;21564;-69
2020/12/26 05:05:42;;;;;;;3.62;2.80;;;;;;;1.60;85.09;99830.21;1785641;79;20951;-69
2020/12/26 05:08:14;;;;;;;4.90;3.20;;;;;;;1.61;84.89;99834.43;1785614;80;21375;-69
2020/12/26 05:10:43;;;;;;;4.75;3.30;;;;;;;1.63;84.72;99836.09;1785585;79;21030;-69
2020/12/26 05:13:12;;;;;;;4.47;3.00;;;;;;;1.64;84.55;99837.77;1785661;80;21027;-69
2020/12/26 05:15:41;;;;;;;4.87;4.00;;;;;;;1.63;84.28;99833.96;1785593;80;20951;-69
2020/12/26 05:18:09;;;;;;;5.85;4.15;;;;;;;1.60;84.20;99837.44;1785631;80;21477;-69
2020/12/26 05:20:38;;;;;;;6.78;4.50;;;;;;;1.59;84.03;99833.22;1785598;80;22319;-69
2020/12/26 05:23:13;;;;;;;8.48;4.62;;;;;;;1.55;83.46;99830.31;1785564;80;21564;-69
2020/12/26 05:25:47;;;;;;;11.83;4.37;;;;;;;1.49;83.10;99834.73;1785581;79;20959;-69
2020/12/26 05:28:19;;;;;;;7.33;3.75;;;;;;;1.38;82.87;99837.97;1785700;80;20998;-69
2020/12/26 05:30:50;;;;;;;9.15;3.75;;;;;;;1.26;82.69;99841.20;1785615;80;21505;-68
2020/12/26 05:33:18;;;;;;;10.40;4.22;;;;;;;1.15;82.59;99837.19;1785620;80;21422;-69
2020/12/26 05:35:51;;;;;;;6.33;5.00;;;;;;;1.03;82.56;99843.41;1785637;80;21489;-70
2020/12/26 05:38:21;;;;;;;8.30;5.47;;;;;;;0.92;83.08;99847.47;1785683;80;21529;-71
2020/12/26 05:40:59;;;;;;;7.78;4.65;;;;;;;0.85;83.50;99849.73;1785602;80;20951;-70
2020/12/26 05:43:32;;;;;;;6.15;3.70;;;;;;;0.81;83.74;99853.67;1785614;80;21572;-70
2020/12/26 05:46:01;;;;;;;4.08;3.35;;;;;;;0.76;83.96;99855.07;1785616;80;21432;-68
2020/12/26 05:48:29;;;;;;;4.97;3.55;;;;;;;0.72;83.98;99860.28;1785517;80;20939;-69
2020/12/26 05:50:59;;;;;;;8.53;3.85;;;;;;;0.70;83.98;99857.75;1785611;80;21500;-69
2020/12/26 05:53:28;;;;;;;6.70;3.17;;;;;;;0.68;84.00;99853.52;1785534;80;21078;-70
2020/12/26 05:55:56;;;;;;;6.97;4.85;;;;;;;0.65;84.09;99863.39;1785571;79;21018;-69
2020/12/26 05:58:26;;;;;;;9.18;4.08;;;;;;;0.62;84.03;99865.57;1785556;80;22213;-70
2020/12/26 06:00:59;;;;;;;7.58;3.75;;;;;;;0.62;83.91;99871.13;1785603;80;20994;-70
2020/12/26 06:03:33;;;;;;;10.60;4.25;;;;;;;0.63;84.13;99876.66;1785544;80;20928;-71
2020/12/26 06:06:04;;;;;;;8.83;4.62;;;;;;;0.65;83.90;99871.08;1785628;80;21429;-69
2020/12/26 06:08:32;;;;;;;7.55;4.72;;;;;;;0.66;83.53;99876.17;1785707;80;21362;-68
2020/12/26 06:11:05;;;;;;;7.60;5.15;;;;;;;0.62;83.07;99866.01;1785627;80;22326;-69
2020/12/26 06:13:35;;;;;;;8.08;5.58;;;;;;;0.58;82.76;99868.21;1785519;80;20959;-69
2020/12/26 06:16:14;;;;;;;17.32;7.60;;;;;;;0.53;82.54;99878.54;1785516;80;20991;-70
2020/12/26 06:18:54;;;;;;;12.75;6.12;;;;;;;0.45;82.44;99875.70;1785493;80;21520;-69
2020/12/26 06:21:23;;;;;;;7.72;4.87;;;;;;;0.35;82.44;99877.60;1785595;80;21576;-69
2020/12/26 06:23:51;;;;;;;5.45;4.42;;;;;;;0.30;82.64;99880.67;1785598;80;22216;-69
2020/12/26 06:26:20;;;;;;;6.55;4.40;;;;;;;0.28;82.86;99883.69;1785426;80;21513;-69
2020/12/26 06:28:48;;;;;;;8.60;5.62;;;;;;;0.28;82.90;99882.41;1785644;80;21516;-69
2020/12/26 06:31:16;;;;;;;16.52;6.95;;;;;;;0.27;82.87;99890.53;1785520;80;21646;-69
2020/12/26 06:33:48;;;;;;;10.15;6.37;;;;;;;0.28;82.80;99887.53;1785566;80;21560;-68
2020/12/26 06:36:19;;;;;;;12.30;7.33;;;;;;;0.26;82.73;99891.41;1785598;80;22219;-69
2020/12/26 06:38:47;;;;;;;11.93;7.87;;;;;;;0.24;82.73;99903.38;1785544;80;20975;-64
2020/12/26 06:41:18;;;;;;;14.03;7.55;;;;;;;0.23;82.80;99905.97;1785571;80;21584;-69
2020/12/26 06:43:52;;;;;;;10.95;7.10;;;;;;;0.22;82.81;99906.84;1785442;80;21114;-65
2020/12/26 06:46:34;;;;;;;8.85;6.50;;;;;;;0.19;82.85;99911.57;1785582;80;21018;-68
2020/12/26 06:49:03;;;;;;;6.55;4.60;;;;;;;0.16;82.90;99903.09;1785519;80;22165;-68
2020/12/26 06:51:42;;;;;;;7.12;5.00;;;;;;;0.14;83.05;99903.11;1785492;80;20971;-69
2020/12/26 06:54:12;;;;;;;9.53;6.70;;;;;;;0.13;83.53;99906.55;1785640;80;21610;-70
2020/12/26 06:56:46;;;;;;;7.80;5.53;;;;;;;0.12;83.67;99902.73;1785486;78;21061;-68
2020/12/26 06:59:15;;;;;;;5.67;5.05;;;;;;;0.12;83.47;99898.45;1785598;80;21572;-68
2020/12/26 07:01:45;;;;;;;7.15;4.67;;;;;;;0.11;83.30;99904.88;1785525;80;22052;-66
2020/12/26 07:04:20;;;;;;;7.47;5.50;;;;;;;0.12;83.25;99909.13;1785414;80;21059;-66
2020/12/26 07:06:55;;;;;;;;;;;;;;;0.13;83.32;99910.81;1788196;80;20939;-68
2020/12/26 07:09:41;;;;;;;13.40;8.73;;;;;;;0.13;83.41;99915.94;1785525;80;22017;-70
2020/12/26 07:12:11;;;;;;;13.98;7.75;;;;;;;0.14;83.51;99922.75;1785740;80;21461;-69
2020/12/26 07:14:46;;;;;;;12.80;8.38;;;;;;;0.15;83.43;99922.73;1785471;79;21210;-66
2020/12/26 07:17:19;;;;;;;9.60;7.37;;;;;;;0.17;83.38;99928.67;1755228;80;21525;-69
2020/12/26 07:19:48;;;;;;;8.78;6.60;;;;;;;0.21;83.46;99930.75;1785525;80;21619;-67
2020/12/26 07:22:29;;;;;;;6.85;5.42;;;;;;;0.24;83.48;99922.59;1785546;80;21038;-69
2020/12/26 07:25:09;;;;;;;8.40;6.17;;;;;;;0.32;83.60;99927.59;1785525;80;21485;-68
2020/12/26 07:27:41;;;;;;;8.63;5.45;;;;;;;0.44;83.84;99926.52;1777048;80;22086;-63
2020/12/26 07:30:16;;;;;;;10.28;5.62;;;;;;;0.54;83.74;99930.19;1771709;81;20948;-69
2020/12/26 07:32:57;;;;;;;4.63;4.23;;;;;;;0.61;83.57;99936.05;1772005;80;20991;-69
2020/12/26 07:35:32;;;;;;;6.08;3.72;;;;;;;0.66;83.40;99936.83;1771562;81;20900;-68
2020/12/26 07:38:11;;;;;;;4.75;3.80;;;;;;;0.71;83.39;99940.16;1771808;81;20948;-68
2020/12/26 07:40:46;;;;;;;5.92;4.05;;;;;;;0.76;83.28;99940.08;1771737;81;22252;-69
2020/12/26 07:43:16;;;;;;;5.22;3.35;;;;;;;0.80;83.11;99950.22;1771798;81;20995;-69
2020/12/26 07:45:46;;;;;;;3.87;3.45;;;;;;;0.87;82.94;99952.24;1771769;81;20999;-68
2020/12/26 07:48:15;;;;;;;4.72;4.05;;;;;;;0.96;82.98;99945.23;1771706;81;21005;-67
2020/12/26 07:50:44;;;;;;;10.25;4.92;;;;;;;1.10;83.28;99952.67;1771770;81;21568;-68
2020/12/26 07:53:14;;;;;;;12.80;5.42;;;;;;;1.27;83.34;99948.05;1771761;80;22340;-69
2020/12/26 07:55:42;;;;;;;12.05;5.75;;;;;;;1.45;82.52;99941.71;1771680;81;21620;-69
2020/12/26 07:58:16;;;;;;;24.98;11.40;;;;;;;1.61;81.70;99950.77;1771737;81;21530;-69
2020/12/26 08:00:44;;;;;;;31.73;14.60;;;;;;;1.78;81.05;99953.42;1748522;80;21557;-69
2020/12/26 08:03:13;;;;;;;23.38;8.63;;;;;;;1.92;80.39;99949.68;1771725;81;21051;-68
2020/12/26 08:05:48;;;;;;;10.88;6.60;;;;;;;2.07;79.87;99952.31;1771758;81;21169;-67
2020/12/26 08:08:26;;;;;;;13.28;7.08;;;;;;;2.21;79.52;99956.70;1771646;81;20912;-68
2020/12/26 08:10:57;;;;;;;23.00;11.48;;;;;;;2.35;79.20;99955.11;1770695;81;20955;-68
2020/12/26 08:13:25;;;;;;;10.40;6.30;;;;;;;2.47;78.42;99958.64;1771939;81;20952;-68
2020/12/26 08:16:03;;;;;;;14.75;8.33;;;;;;;2.58;77.83;99964.38;1771754;81;21576;-67
2020/12/26 08:18:33;;;;;;;33.40;18.92;;;;;;;2.67;77.53;99968.45;1771853;81;22139;-68
2020/12/26 08:21:02;;;;;;;31.48;18.87;;;;;;;2.77;77.03;99973.77;1771580;81;47676;-68
2020/12/26 08:23:31;;;;;;;19.35;11.25;;;;;;;2.87;76.69;99976.92;1771670;81;21489;-67
2020/12/26 08:26:02;;;;;;;10.13;7.60;;;;;;;2.90;76.24;99985.41;1771692;81;21532;-68
2020/12/26 08:28:31;;;;;;;15.53;8.43;;;;;;;2.95;75.92;99984.00;1771669;81;21508;-65
2020/12/26 08:31:02;;;;;;;10.25;5.25;;;;;;;2.96;75.90;99986.54;1771734;81;22137;-68
2020/12/26 08:33:38;;;;;;;8.88;6.17;;;;;;;2.97;75.62;99980.52;1748195;81;20975;-69
2020/12/26 08:36:23;;;;;;;7.87;5.20;;;;;;;2.98;75.46;99973.64;1771714;80;21011;-69
2020/12/26 08:39:00;;;;;;;8.08;5.33;;;;;;;2.98;75.27;99981.35;1771867;81;21906;-67
2020/12/26 08:41:29;;;;;;;9.63;6.12;;;;;;;3.00;75.10;99974.44;1771706;80;20908;-65
2020/12/26 08:43:57;;;;;;;8.20;5.40;;;;;;;3.00;74.99;99976.58;1748393;81;21302;-70
2020/12/26 08:46:26;;;;;;;6.75;4.10;;;;;;;3.02;75.11;99979.11;1771689;81;21936;-70
2020/12/26 08:48:57;;;;;;;4.72;4.33;;;;;;;3.04;75.14;99979.91;1771669;81;21600;-69
2020/12/26 08:51:27;;;;;;;6.67;4.60;;;;;;;3.01;74.94;99969.26;1771686;80;21591;-69
2020/12/26 08:53:58;;;;;;;5.15;4.47;;;;;;;2.98;74.83;99977.05;1771742;81;21015;-70
2020/12/26 08:56:32;;;;;;;5.60;5.05;;;;;;;2.92;74.81;99981.52;1771695;81;22330;-71
2020/12/26 08:59:00;;;;;;;4.42;3.92;;;;;;;2.86;74.96;99973.95;1771620;81;20963;-69
2020/12/26 09:01:29;;;;;;;4.35;3.95;;;;;;;2.83;75.02;99976.59;1771674;81;21513;-69
2020/12/26 09:03:57;;;;;;;5.75;4.05;;;;;;;2.78;75.13;99974.17;1771687;81;21513;-70
2020/12/26 09:06:33;;;;;;;6.05;4.33;;;;;;;2.73;75.25;99965.73;1771759;81;21652;-70
2020/12/26 09:09:21;;;;;;;4.67;4.22;;;;;;;2.71;75.54;99966.64;1771952;81;21176;-68
2020/12/26 09:12:06;;;;;;;4.15;3.85;;;;;;;2.69;75.71;99966.69;1771648;81;21015;-70
2020/12/26 09:14:34;;;;;;;4.80;4.37;;;;;;;2.71;75.48;99963.63;1771673;81;21612;-70
2020/12/26 09:17:05;;;;;;;5.00;4.50;;;;;;;2.72;75.62;99961.47;1771593;81;21627;-71
2020/12/26 09:19:43;;;;;;;4.62;3.98;;;;;;;2.73;75.82;99962.31;1771710;81;21489;-69
2020/12/26 09:22:21;;;;;;;5.12;4.62;;;;;;;2.78;75.91;99969.03;1890673;76;22010;-70
2020/12/26 09:24:51;;;;;;;16.00;9.70;;;;;;;2.73;75.81;99968.73;1859812;77;21562;-71
2020/12/26 09:27:20;;;;;;;11.45;8.20;;;;;;;2.73;75.64;99967.02;1861464;77;22256;-65
2020/12/26 09:29:54;;;;;;;7.08;5.47;;;;;;;2.74;75.68;99971.71;1861490;77;21435;-66
2020/12/26 09:32:20;;;;;;;5.65;4.40;;;;;;;2.75;75.48;99963.12;1861481;77;21486;-69
2020/12/26 09:34:49;;;;;;;5.47;4.92;;;;;;;2.75;75.52;99965.25;1861496;77;20980;-70
2020/12/26 09:37:17;;;;;;;5.40;3.72;;;;;;;2.77;75.74;99966.05;1861443;77;21426;-69
2020/12/26 09:39:46;;;;;;;6.45;5.30;;;;;;;2.84;75.71;99961.57;1861427;77;21921;-64
2020/12/26 09:42:14;;;;;;;4.90;4.40;;;;;;;2.90;75.67;99953.70;1861304;76;20984;-68
2020/12/26 09:44:43;;;;;;;3.40;3.10;;;;;;;2.97;75.79;99949.64;1861386;76;21352;-66
2020/12/26 09:47:11;;;;;;;5.37;4.65;;;;;;;3.06;75.83;99942.58;1861360;77;21466;-70
2020/12/26 09:49:40;;;;;;;4.87;4.35;;;;;;;3.13;75.63;99947.96;1861389;77;22289;-70
2020/12/26 09:52:08;;;;;;;4.20;3.80;;;;;;;3.18;75.35;99949.52;1861424;77;22308;-71
2020/12/26 09:54:36;;;;;;;8.03;6.25;;;;;;;3.18;75.00;99954.67;1861351;77;21450;-68
2020/12/26 09:57:05;;;;;;;8.30;5.55;;;;;;;3.19;74.88;99951.66;1861389;77;21579;-71
2020/12/26 09:59:33;;;;;;;5.20;4.70;;;;;;;3.18;74.83;99943.09;1861324;77;21356;-70
2020/12/26 10:02:02;;;;;;;10.18;6.83;;;;;;;3.16;74.94;99953.02;1861363;77;21490;-70
2020/12/26 10:04:31;;;;;;;23.42;12.30;;;;;;;3.16;74.88;99950.45;1861407;77;22103;-71
2020/12/26 10:06:59;;;;;;;15.98;9.60;;;;;;;3.19;74.81;99963.23;1861424;77;21427;-70
2020/12/26 10:09:27;;;;;;;9.80;7.60;;;;;;;3.21;74.83;99963.56;1861354;77;21574;-69
2020/12/26 10:11:56;;;;;;;11.55;7.53;;;;;;;3.24;74.83;99967.78;1861301;77;21628;-68
2020/12/26 10:14:24;;;;;;;8.93;5.85;;;;;;;3.25;74.89;99965.61;1861405;77;21645;-69
2020/12/26 10:16:53;;;;;;;8.43;5.95;;;;;;;3.24;74.94;99969.91;1861470;77;21446;-69
2020/12/26 10:19:22;;;;;;;7.42;5.65;;;;;;;3.27;75.04;99976.70;1861384;77;21494;-69
2020/12/26 10:21:53;;;;;;;5.80;4.60;;;;;;;3.29;75.03;99977.06;1854070;76;21499;-69
2020/12/26 10:24:21;;;;;;;5.15;4.50;;;;;;;3.29;75.12;99978.36;1850335;77;21488;-68
2020/12/26 10:26:50;;;;;;;7.05;5.03;;;;;;;3.31;75.03;99975.30;1850303;77;20918;-68
2020/12/26 10:29:19;;;;;;;4.80;4.30;;;;;;;3.32;75.05;99982.14;1850255;77;22134;-69
2020/12/26 10:31:47;;;;;;;4.75;4.20;;;;;;;3.34;75.16;99993.23;1850097;77;21551;-69
2020/12/26 10:34:17;;;;;;;5.28;3.47;;;;;;;3.34;75.07;99995.80;1849650;77;21423;-69
2020/12/26 10:36:46;;;;;;;7.03;4.97;;;;;;;3.33;75.15;99999.70;1849654;77;20973;-69
2020/12/26 10:39:14;;;;;;;13.85;7.35;;;;;;;3.31;75.18;99998.46;1849696;77;21621;-68
2020/12/26 10:41:45;;;;;;;16.07;10.23;;;;;;;3.30;75.30;99998.06;1849723;77;22409;-66
2020/12/26 10:44:13;;;;;;;7.33;5.40;;;;;;;3.30;75.31;99995.92;1849677;77;21590;-67
2020/12/26 10:46:43;;;;;;;5.20;4.70;;;;;;;3.28;75.33;100004.13;1849173;76;21585;-63
2020/12/26 10:49:12;;;;;;;9.13;5.65;;;;;;;3.25;75.57;100003.77;1849589;77;21447;-69
2020/12/26 10:51:40;;;;;;;8.28;6.62;;;;;;;3.22;76.20;100017.16;1849692;77;21543;-68
2020/12/26 10:54:09;;;;;;;4.72;4.22;;;;;;;3.22;76.87;100017.16;1849688;77;22290;-70
2020/12/26 10:56:37;;;;;;;4.42;4.03;;;;;;;3.25;77.14;100026.92;1849607;77;21414;-68
2020/12/26 10:59:05;;;;;;;6.28;5.17;;;;;;;3.30;77.11;100021.22;1849652;77;21609;-68
2020/12/26 11:01:34;;;;;;;5.28;4.75;;;;;;;3.34;77.22;100021.54;1849536;77;21613;-67
2020/12/26 11:04:02;;;;;;;5.70;4.40;;;;;;;3.37;76.98;100015.91;1849708;76;21506;-70
2020/12/26 11:06:31;;;;;;;4.75;4.22;;;;;;;3.37;76.57;100010.32;1849687;77;21437;-69
2020/12/26 11:08:59;;;;;;;7.45;3.62;;;;;;;3.38;76.41;100008.16;1849646;77;20929;-72
2020/12/26 11:11:29;;;;;;;3.87;3.58;;;;;;;3.38;76.24;100002.16;1849623;77;20929;-67
2020/12/26 11:13:58;;;;;;;4.60;4.10;;;;;;;3.35;76.27;100001.80;1849614;77;21040;-67
2020/12/26 11:16:27;;;;;;;4.08;3.67;;;;;;;3.33;76.37;100012.58;1849682;77;21068;-68
2020/12/26 11:18:55;;;;;;;5.83;5.10;;;;;;;3.30;76.36;100010.08;1849633;77;22119;-69
2020/12/26 11:21:23;;;;;;;6.75;5.58;;;;;;;3.25;76.44;100015.34;1849319;77;21570;-69
2020/12/26 11:23:52;;;;;;;5.58;4.05;;;;;;;3.22;76.52;100011.56;1849045;77;20894;-68
2020/12/26 11:26:22;;;;;;;3.77;3.45;;;;;;;3.18;76.65;100025.88;1848206;77;21324;-70
2020/12/26 11:28:51;;;;;;;5.70;3.62;;;;;;;3.15;76.86;100025.95;1849046;77;21348;-70
2020/12/26 11:31:25;;;;;;;4.20;3.80;;;;;;;3.12;76.99;100028.16;1849102;77;21350;-68
2020/12/26 11:33:54;;;;;;;4.92;4.03;;;;;;;3.09;77.16;100032.09;1849024;77;21475;-67
2020/12/26 11:36:25;;;;;;;5.37;4.25;;;;;;;3.07;77.30;100030.00;1848997;77;21424;-66
2020/12/26 11:38:54;;;;;;;5.75;4.58;;;;;;;3.07;77.75;100027.86;1848871;77;21064;-64
2020/12/26 11:41:26;;;;;;;4.47;3.92;;;;;;;3.08;78.22;100021.84;1848960;77;20938;-69
2020/12/26 11:43:55;;;;;;;4.22;3.83;;;;;;;3.09;78.38;100029.52;1849068;77;21411;-68
2020/12/26 11:46:24;;;;;;;3.37;3.08;;;;;;;3.14;78.45;100032.82;1848952;77;20981;-69
2020/12/26 11:48:52;;;;;;;3.58;3.05;;;;;;;3.18;78.67;100042.15;1848981;77;21503;-69
2020/12/26 11:51:21;;;;;;;3.83;3.47;;;;;;;3.21;78.67;100045.90;1849035;77;21514;-68
2020/12/26 11:53:49;;;;;;;4.30;3.40;;;;;;;3.23;78.18;100050.56;1849048;77;21439;-65